Time;durP1;ratioP1;P1;durP2;ratioP2;P2;SDS_P1;SDS_P2;PMS_P1;PMS_P2;Temp;Humidity;BMP_temperature;BMP_pressure;BME280_temperature;BME280_humidity;BME280_pressure;Samples;Min_cycle;Max_cycle;Signal;HPM_P1;HPM_P2
2024/01/17 00:01:02;;;;;;;12.95;7.25;;;-6.20;99.90;;;;;;502824;236;28367;-65
2024/01/17 00:03:03;;;;;;;12.77;8.93;;;-6.20;99.90;;;;;;502969;236;27546;-65
2024/01/17 00:05:05;;;;;;;15.38;8.20;;;-6.20;99.90;;;;;;502980;236;27855;-65
2024/01/17 00:07:06;;;;;;;11.05;7.75;;;-6.10;99.90;;;;;;502967;236;28714;-65
2024/01/17 00:09:08;;;;;;;10.23;6.95;;;-6.10;99.90;;;;;;503043;236;27993;-65
2024/01/17 00:11:08;;;;;;;8.30;6.87;;;-6.10;99.90;;;;;;502880;236;27504;-65
2024/01/17 00:13:10;;;;;;;13.55;7.50;;;-6.10;99.90;;;;;;502992;236;27466;-65
2024/01/17 00:15:12;;;;;;;13.73;7.60;;;-6.10;99.90;;;;;;502948;236;27551;-64
2024/01/17 00:17:12;;;;;;;14.32;7.75;;;-6.00;99.90;;;;;;503060;236;27596;-66
2024/01/17 00:19:14;;;;;;;13.82;8.55;;;-6.10;99.90;;;;;;502913;236;27548;-64
2024/01/17 00:21:15;;;;;;;13.05;8.15;;;-6.20;99.90;;;;;;502982;236;27895;-65
2024/01/17 00:23:16;;;;;;;16.85;9.40;;;-6.30;99.90;;;;;;503040;236;27976;-65
2024/01/17 00:25:17;;;;;;;17.12;10.73;;;-6.30;99.90;;;;;;502959;236;27573;-65
2024/01/17 00:27:23;;;;;;;10.52;7.85;;;-6.20;99.90;;;;;;503046;236;27502;-64
2024/01/17 00:29:20;;;;;;;16.95;8.82;;;-6.20;99.90;;;;;;502706;236;27437;-65
2024/01/17 00:31:21;;;;;;;13.25;8.63;;;-6.20;99.90;;;;;;503011;236;27970;-64
2024/01/17 00:33:22;;;;;;;13.30;7.85;;;-6.20;99.90;;;;;;502962;236;27874;-65
2024/01/17 00:35:25;;;;;;;11.73;8.25;;;-6.30;99.90;;;;;;502912;236;27434;-64
2024/01/17 00:37:25;;;;;;;11.60;7.85;;;-6.30;99.90;;;;;;502986;236;27576;-65
2024/01/17 00:39:26;;;;;;;13.43;8.18;;;-6.20;99.90;;;;;;503022;236;27477;-64
2024/01/17 00:41:27;;;;;;;15.13;6.97;;;-6.20;99.90;;;;;;502944;236;27605;-65
2024/01/17 00:43:29;;;;;;;13.15;8.35;;;-6.20;99.90;;;;;;503002;236;27497;-66
2024/01/17 00:45:30;;;;;;;17.58;8.02;;;-6.20;99.90;;;;;;502995;236;27876;-65
2024/01/17 00:47:31;;;;;;;14.80;8.90;;;-6.10;99.90;;;;;;503011;236;27965;-65
2024/01/17 00:49:32;;;;;;;14.27;8.10;;;-6.10;99.90;;;;;;503018;236;28068;-64
2024/01/17 00:51:34;;;;;;;16.08;8.77;;;-6.10;99.90;;;;;;502992;236;27554;-65
2024/01/17 00:53:35;;;;;;;12.77;8.30;;;-6.10;99.90;;;;;;502965;236;27486;-66
2024/01/17 00:55:36;;;;;;;13.15;7.70;;;-6.00;99.90;;;;;;502999;236;27491;-65
2024/01/17 00:57:37;;;;;;;10.07;7.32;;;-6.00;99.90;;;;;;502992;236;27571;-65
2024/01/17 00:59:39;;;;;;;14.00;7.93;;;-6.00;99.90;;;;;;503003;236;27434;-64
2024/01/17 01:01:40;;;;;;;14.85;8.70;;;-6.00;99.90;;;;;;503049;236;27960;-65
2024/01/17 01:03:41;;;;;;;16.37;8.88;;;-6.00;99.90;;;;;;502991;236;29155;-66
2024/01/17 01:05:42;;;;;;;14.60;8.48;;;-5.80;99.90;;;;;;502848;236;27526;-65
2024/01/17 01:07:44;;;;;;;15.18;8.07;;;-5.80;99.90;;;;;;503002;236;27477;-64
2024/01/17 01:09:45;;;;;;;10.80;8.07;;;-5.80;99.90;;;;;;503023;236;27556;-65
2024/01/17 01:11:46;;;;;;;13.45;8.25;;;-5.80;99.90;;;;;;503019;236;27550;-65
2024/01/17 01:13:47;;;;;;;9.75;7.32;;;-5.70;99.90;;;;;;503016;236;27493;-64
2024/01/17 01:15:49;;;;;;;12.65;7.43;;;-5.70;99.90;;;;;;502974;236;27444;-65
2024/01/17 01:17:50;;;;;;;16.12;8.15;;;-5.60;99.90;;;;;;503010;236;28026;-65
2024/01/17 01:19:51;;;;;;;12.63;8.02;;;-5.50;99.90;;;;;;503037;236;29125;-66
2024/01/17 01:21:52;;;;;;;12.32;7.87;;;-5.50;99.90;;;;;;503008;236;27450;-65
2024/01/17 01:23:54;;;;;;;12.90;7.93;;;-5.40;99.90;;;;;;503006;236;27477;-64
2024/01/17 01:25:55;;;;;;;13.52;8.10;;;-5.40;99.90;;;;;;502963;236;27455;-64
2024/01/17 01:27:56;;;;;;;12.05;8.18;;;-5.40;99.90;;;;;;503059;236;27481;-65
2024/01/17 01:29:58;;;;;;;16.87;8.35;;;-5.30;99.90;;;;;;503053;236;27495;-65
2024/01/17 01:31:59;;;;;;;10.38;7.53;;;-5.30;99.90;;;;;;503001;236;27446;-64
2024/01/17 01:34:00;;;;;;;15.73;8.45;;;-5.20;99.90;;;;;;503001;236;27945;-65
2024/01/17 01:36:01;;;;;;;11.50;7.28;;;-5.20;99.90;;;;;;502995;236;28158;-65
2024/01/17 01:38:03;;;;;;;15.25;8.32;;;-5.30;99.90;;;;;;503035;236;27519;-64
2024/01/17 01:40:04;;;;;;;13.48;7.93;;;-5.30;99.90;;;;;;503033;236;27557;-64
2024/01/17 01:42:05;;;;;;;15.00;8.10;;;-5.30;99.90;;;;;;502995;236;27449;-65
2024/01/17 01:44:06;;;;;;;17.00;9.40;;;-5.30;99.90;;;;;;503009;236;27521;-65
2024/01/17 01:46:08;;;;;;;16.10;8.50;;;-5.20;99.90;;;;;;503003;236;27477;-65
2024/01/17 01:48:09;;;;;;;12.00;8.38;;;-5.20;99.90;;;;;;503029;236;27426;-65
2024/01/17 01:50:11;;;;;;;15.20;8.70;;;-5.30;99.90;;;;;;503018;236;27945;-65
2024/01/17 01:52:11;;;;;;;14.57;7.95;;;-5.30;99.90;;;;;;502989;236;27855;-65
2024/01/17 01:54:13;;;;;;;15.25;8.18;;;-5.40;99.90;;;;;;503058;236;27438;-65
2024/01/17 01:56:14;;;;;;;11.88;8.07;;;-5.50;99.90;;;;;;503020;236;27480;-65
2024/01/17 01:58:15;;;;;;;12.57;7.57;;;-5.40;99.90;;;;;;503050;236;27438;-65
2024/01/17 02:00:17;;;;;;;14.07;8.38;;;-5.40;99.90;;;;;;502873;236;27612;-65
2024/01/17 02:02:18;;;;;;;11.40;8.45;;;-5.40;99.90;;;;;;503003;236;27826;-66
2024/01/17 02:04:19;;;;;;;14.65;9.27;;;-5.50;99.90;;;;;;502931;236;27946;-64
2024/01/17 02:06:20;;;;;;;17.02;8.93;;;-5.50;99.90;;;;;;503058;236;27946;-65
2024/01/17 02:08:21;;;;;;;13.15;8.07;;;-5.50;99.90;;;;;;503017;236;27550;-65
2024/01/17 02:10:23;;;;;;;12.52;8.50;;;-5.40;99.90;;;;;;503028;236;27508;-65
2024/01/17 02:12:24;;;;;;;12.65;8.23;;;-5.30;99.90;;;;;;502993;236;27581;-66
2024/01/17 02:14:25;;;;;;;13.93;8.73;;;-5.30;99.90;;;;;;502930;236;27459;-65
2024/01/17 02:16:27;;;;;;;14.15;7.78;;;-5.30;99.90;;;;;;503023;236;27628;-65
2024/01/17 02:18:28;;;;;;;13.45;8.82;;;-5.20;99.90;;;;;;502987;236;27445;-65
2024/01/17 02:20:29;;;;;;;16.37;8.50;;;-5.20;99.90;;;;;;502863;236;28371;-64
2024/01/17 02:22:30;;;;;;;17.75;8.45;;;-5.10;99.90;;;;;;503017;236;27988;-65
2024/01/17 02:24:31;;;;;;;13.82;8.95;;;-5.20;99.90;;;;;;502965;236;27458;-65
2024/01/17 02:26:33;;;;;;;17.23;9.35;;;-5.20;99.90;;;;;;502977;236;27500;-65
2024/01/17 02:28:34;;;;;;;13.65;8.75;;;-5.30;99.90;;;;;;503004;236;27465;-65
2024/01/17 02:30:35;;;;;;;11.48;8.50;;;-5.10;99.90;;;;;;503032;236;27482;-65
2024/01/17 02:32:36;;;;;;;12.45;8.40;;;-5.00;99.90;;;;;;502994;236;27493;-65
2024/01/17 02:34:38;;;;;;;16.60;9.20;;;-5.00;99.90;;;;;;502964;236;27465;-65
2024/01/17 02:36:39;;;;;;;14.90;8.07;;;-4.90;99.90;;;;;;502984;236;27954;-65
2024/01/17 02:38:40;;;;;;;14.10;7.60;;;-4.80;99.90;;;;;;503065;236;28055;-66
2024/01/17 02:40:42;;;;;;;13.75;8.63;;;-4.80;99.90;;;;;;503043;236;27443;-65
2024/01/17 02:42:43;;;;;;;11.10;7.97;;;-4.80;99.90;;;;;;502979;236;27481;-65
2024/01/17 02:44:45;;;;;;;11.55;8.18;;;;;;;;;;502928;236;27453;-65
2024/01/17 02:46:48;;;;;;;12.50;7.32;;;;;;;;;;503051;236;27505;-65
2024/01/17 02:48:50;;;;;;;19.02;9.27;;;;;;;;;;502988;236;27604;-65
2024/01/17 02:50:53;;;;;;;16.17;8.88;;;;;;;;;;503059;236;26989;-65
2024/01/17 02:52:54;;;;;;;15.73;9.55;;;-4.80;99.90;;;;;;503008;236;26872;-65
2024/01/17 02:54:55;;;;;;;12.68;8.60;;;-4.70;99.90;;;;;;502963;236;27536;-65
2024/01/17 02:56:56;;;;;;;11.98;7.70;;;-4.70;99.90;;;;;;503032;236;27525;-66
2024/01/17 02:58:59;;;;;;;14.50;9.20;;;;;;;;;;503017;236;27908;-65
2024/01/17 03:01:00;;;;;;;11.60;8.10;;;-5.00;99.90;;;;;;503008;236;26903;-65
2024/01/17 03:03:01;;;;;;;17.12;8.88;;;-4.90;99.90;;;;;;502973;236;27588;-65
2024/01/17 03:05:05;;;;;;;14.43;8.73;;;;;;;;;;502965;236;27488;-65
2024/01/17 03:07:05;;;;;;;12.82;7.85;;;-4.90;99.90;;;;;;502947;236;26964;-65
2024/01/17 03:09:08;;;;;;;12.07;7.90;;;;;;;;;;502983;236;27498;-65
2024/01/17 03:11:10;;;;;;;15.93;9.13;;;;;;;;;;503006;236;26836;-65
2024/01/17 03:13:13;;;;;;;12.55;7.90;;;-5.00;99.90;;;;;;503000;236;26731;-65
2024/01/17 03:15:14;;;;;;;12.05;7.80;;;;;;;;;;502775;236;27989;-64
2024/01/17 03:17:15;;;;;;;10.95;7.90;;;-4.50;99.90;;;;;;503030;236;26681;-66
2024/01/17 03:19:16;;;;;;;11.18;7.70;;;-4.50;99.90;;;;;;503032;236;27479;-65
2024/01/17 03:21:19;;;;;;;11.07;6.78;;;;;;;;;;503007;236;27054;-65
2024/01/17 03:23:21;;;;;;;13.45;8.35;;;-4.60;99.90;;;;;;503073;236;26682;-65
2024/01/17 03:25:21;;;;;;;11.93;8.00;;;-4.50;99.90;;;;;;502957;236;27078;-66
2024/01/17 03:27:24;;;;;;;10.70;7.57;;;;;;;;;;503039;236;27446;-66
2024/01/17 03:29:26;;;;;;;12.07;7.68;;;;;;;;;;503007;236;26652;-65
2024/01/17 03:31:27;;;;;;;13.43;8.70;;;-4.10;99.90;;;;;;502962;236;27379;-65
2024/01/17 03:33:30;;;;;;;11.85;8.43;;;;;;;;;;503031;236;27459;-64
2024/01/17 03:35:32;;;;;;;13.13;8.50;;;;;;;;;;502976;236;26677;-66
2024/01/17 03:37:36;;;;;;;11.80;7.75;;;;;;;;;;503029;236;26619;-66
2024/01/17 03:39:36;;;;;;;13.60;7.57;;;-4.00;99.90;;;;;;502969;236;27064;-65
2024/01/17 03:41:37;;;;;;;12.63;7.80;;;-3.90;99.90;;;;;;503040;236;27764;-66
2024/01/17 03:43:38;;;;;;;11.48;7.20;;;-3.90;99.90;;;;;;502865;236;26991;-65
2024/01/17 03:45:40;;;;;;;15.07;8.80;;;-3.90;99.90;;;;;;502945;236;27180;-65
2024/01/17 03:47:41;;;;;;;11.20;7.28;;;-3.90;99.90;;;;;;502954;236;27212;-65
2024/01/17 03:49:42;;;;;;;12.80;8.20;;;-3.80;99.90;;;;;;502908;236;27243;-65
2024/01/17 03:51:45;;;;;;;13.82;8.40;;;;;;;;;;503045;236;27070;-64
2024/01/17 03:53:46;;;;;;;16.95;8.68;;;-3.50;99.90;;;;;;503050;236;26604;-65
2024/01/17 03:55:47;;;;;;;11.18;8.88;;;-3.40;99.90;;;;;;502933;236;27235;-65
2024/01/17 03:57:48;;;;;;;11.65;7.95;;;-3.20;99.90;;;;;;503051;236;27232;-65
2024/01/17 03:59:50;;;;;;;13.70;8.10;;;-3.10;99.90;;;;;;503051;236;27460;-65
2024/01/17 04:01:51;;;;;;;13.25;8.05;;;-3.10;99.90;;;;;;503007;236;27227;-65
2024/01/17 04:03:53;;;;;;;14.05;8.10;;;-3.10;99.90;;;;;;503016;236;27541;-65
2024/01/17 04:05:53;;;;;;;14.25;8.48;;;-3.10;99.90;;;;;;502877;236;28045;-66
2024/01/17 04:07:55;;;;;;;14.63;7.57;;;-3.20;99.90;;;;;;503038;236;27974;-65
2024/01/17 04:09:56;;;;;;;10.35;7.50;;;-3.20;99.90;;;;;;503049;236;27391;-65
2024/01/17 04:11:57;;;;;;;17.05;9.05;;;-3.20;99.90;;;;;;503007;236;27265;-64
2024/01/17 04:13:59;;;;;;;12.20;8.15;;;-3.20;99.90;;;;;;503000;236;27457;-65
2024/01/17 04:16:00;;;;;;;12.20;8.40;;;-3.10;99.90;;;;;;502971;236;27491;-65
2024/01/17 04:18:01;;;;;;;14.15;8.90;;;-3.00;99.90;;;;;;503031;236;27015;-65
2024/01/17 04:20:02;;;;;;;14.18;7.72;;;-3.00;99.90;;;;;;502976;236;27963;-65
2024/01/17 04:22:03;;;;;;;15.38;9.52;;;-2.90;99.90;;;;;;503007;236;28944;-65
2024/01/17 04:24:05;;;;;;;17.17;8.75;;;-2.80;99.90;;;;;;503084;236;27481;-65
2024/01/17 04:26:06;;;;;;;11.73;7.47;;;-2.70;99.90;;;;;;502940;236;27573;-66
2024/01/17 04:28:07;;;;;;;12.05;7.82;;;-2.60;99.90;;;;;;503004;236;27552;-65
2024/01/17 04:30:08;;;;;;;19.10;10.15;;;-2.50;99.90;;;;;;502993;236;27506;-65
2024/01/17 04:32:10;;;;;;;14.23;8.50;;;-2.50;99.90;;;;;;503029;236;27839;-66
2024/01/17 04:34:11;;;;;;;12.90;7.28;;;-2.40;99.90;;;;;;503029;236;27461;-65
2024/01/17 04:36:15;;;;;;;13.60;8.48;;;-2.40;99.90;;;;;;502966;236;27970;-65
2024/01/17 04:38:13;;;;;;;14.32;9.10;;;-2.30;99.90;;;;;;502730;236;27895;-65
2024/01/17 04:40:15;;;;;;;14.57;8.93;;;-2.30;99.90;;;;;;503004;236;27462;-65
2024/01/17 04:42:16;;;;;;;14.57;8.15;;;-2.50;99.90;;;;;;503005;236;27590;-66
2024/01/17 04:44:17;;;;;;;12.30;8.55;;;-2.60;99.90;;;;;;503014;236;27497;-64
2024/01/17 04:46:19;;;;;;;14.57;8.95;;;-2.60;99.90;;;;;;502901;236;27495;-65
2024/01/17 04:48:20;;;;;;;12.70;8.30;;;-2.50;99.90;;;;;;502809;236;27479;-65
2024/01/17 04:50:21;;;;;;;12.93;8.10;;;-2.50;99.90;;;;;;503034;236;27965;-65
2024/01/17 04:52:22;;;;;;;13.45;8.00;;;-2.50;99.90;;;;;;503028;236;27984;-65
2024/01/17 04:54:24;;;;;;;11.40;8.40;;;-2.50;99.90;;;;;;502937;236;27466;-65
2024/01/17 04:56:25;;;;;;;12.18;7.90;;;-2.40;99.90;;;;;;503003;236;27494;-65
2024/01/17 04:58:26;;;;;;;14.07;8.57;;;-2.40;99.90;;;;;;503049;236;27489;-65
2024/01/17 05:00:27;;;;;;;13.93;9.55;;;-2.30;99.90;;;;;;503023;236;27603;-65
2024/01/17 05:02:29;;;;;;;12.37;7.87;;;-2.30;99.90;;;;;;503006;236;27504;-65
2024/01/17 05:04:30;;;;;;;14.15;8.20;;;-2.30;99.90;;;;;;502945;236;27454;-65
2024/01/17 05:06:32;;;;;;;10.25;7.50;;;-2.40;99.90;;;;;;502961;236;28002;-65
2024/01/17 05:08:32;;;;;;;11.88;7.75;;;-2.40;99.90;;;;;;502950;236;29128;-67
2024/01/17 05:10:34;;;;;;;12.68;7.03;;;-2.50;99.90;;;;;;503031;236;27454;-65
2024/01/17 05:12:35;;;;;;;12.77;7.68;;;-2.50;99.90;;;;;;503003;236;27568;-65
2024/01/17 05:14:36;;;;;;;11.90;8.27;;;-2.40;99.90;;;;;;502931;236;27438;-65
2024/01/17 05:16:37;;;;;;;16.83;10.23;;;-2.30;99.90;;;;;;503056;236;27596;-65
2024/01/17 05:18:39;;;;;;;17.67;10.07;;;-2.30;99.90;;;;;;503033;236;27578;-65
2024/01/17 05:20:40;;;;;;;13.80;8.50;;;-2.40;99.90;;;;;;502996;236;27893;-65
2024/01/17 05:22:41;;;;;;;16.23;8.30;;;-2.30;99.90;;;;;;502864;236;27967;-66
2024/01/17 05:24:42;;;;;;;11.50;8.27;;;-2.40;99.90;;;;;;502833;236;27887;-65
2024/01/17 05:26:46;;;;;;;10.35;7.05;;;-2.30;99.90;;;;;;502881;236;27353;-65
2024/01/17 05:28:45;;;;;;;13.45;7.68;;;-2.30;99.90;;;;;;502874;236;27482;-65
2024/01/17 05:30:46;;;;;;;11.48;7.87;;;-2.20;99.90;;;;;;503032;236;27540;-65
2024/01/17 05:32:47;;;;;;;11.35;8.00;;;-2.10;99.90;;;;;;502979;236;27588;-65
2024/01/17 05:34:50;;;;;;;10.77;7.70;;;-2.10;99.90;;;;;;503016;236;27486;-67
2024/01/17 05:36:50;;;;;;;14.48;8.82;;;-2.00;99.90;;;;;;502969;236;27896;-65
2024/01/17 05:38:51;;;;;;;11.02;8.73;;;-2.00;99.90;;;;;;503033;236;27941;-65
2024/01/17 05:40:52;;;;;;;16.83;8.95;;;-2.00;99.90;;;;;;502982;236;27505;-65
2024/01/17 05:42:54;;;;;;;11.12;7.70;;;-2.00;99.90;;;;;;503052;236;27509;-65
2024/01/17 05:44:55;;;;;;;11.43;7.97;;;-2.00;99.90;;;;;;503000;236;27500;-66
2024/01/17 05:46:57;;;;;;;11.63;7.60;;;-1.90;99.90;;;;;;503021;236;27448;-65
2024/01/17 05:48:57;;;;;;;12.43;7.97;;;-1.90;99.90;;;;;;503007;236;27521;-65
2024/01/17 05:50:59;;;;;;;14.95;8.73;;;-1.80;99.90;;;;;;503028;236;27872;-65
2024/01/17 05:53:00;;;;;;;13.27;8.48;;;-1.80;99.90;;;;;;503044;236;28005;-65
2024/01/17 05:55:01;;;;;;;12.52;9.38;;;-1.70;99.90;;;;;;503052;236;27956;-65
2024/01/17 05:57:03;;;;;;;15.80;9.93;;;-1.60;99.90;;;;;;502999;236;27463;-65
2024/01/17 05:59:04;;;;;;;14.38;9.35;;;-1.60;99.90;;;;;;502992;236;27482;-65
2024/01/17 06:01:05;;;;;;;15.40;10.02;;;-1.60;99.90;;;;;;502904;236;27485;-66
2024/01/17 06:03:06;;;;;;;13.75;9.45;;;-1.40;99.90;;;;;;503016;236;27552;-66
2024/01/17 06:05:08;;;;;;;16.02;9.75;;;-1.30;99.90;;;;;;502929;236;27474;-65
2024/01/17 06:07:09;;;;;;;15.00;8.88;;;-1.30;99.90;;;;;;502900;236;27467;-65
2024/01/17 06:09:10;;;;;;;12.10;9.75;;;-1.20;99.90;;;;;;503027;236;27946;-65
2024/01/17 06:11:11;;;;;;;11.15;8.27;;;-1.20;99.90;;;;;;503029;236;27974;-65
2024/01/17 06:13:13;;;;;;;13.45;8.35;;;-1.10;99.90;;;;;;502959;236;27449;-65
2024/01/17 06:15:17;;;;;;;11.65;8.43;;;-1.00;99.90;;;;;;502927;236;27481;-65
2024/01/17 06:17:15;;;;;;;13.35;9.18;;;-1.00;99.90;;;;;;502715;236;27494;-65
2024/01/17 06:19:16;;;;;;;15.30;9.00;;;-1.00;99.90;;;;;;503014;236;27528;-65
2024/01/17 06:21:18;;;;;;;13.10;8.18;;;-0.90;99.90;;;;;;502995;236;27561;-65
2024/01/17 06:23:19;;;;;;;18.60;9.35;;;-0.90;99.90;;;;;;502997;236;27933;-65
2024/01/17 06:25:20;;;;;;;12.85;8.80;;;-1.00;99.90;;;;;;502912;236;28060;-66
2024/01/17 06:27:22;;;;;;;14.27;8.70;;;-0.90;99.90;;;;;;503030;236;27498;-68
2024/01/17 06:29:24;;;;;;;14.75;8.55;;;-0.90;99.90;;;;;;503007;236;27508;-65
2024/01/17 06:31:25;;;;;;;12.37;9.02;;;-0.90;99.90;;;;;;502871;236;27555;-65
2024/01/17 06:33:25;;;;;;;14.30;8.98;;;-0.80;99.90;;;;;;502969;236;27446;-66
2024/01/17 06:35:26;;;;;;;15.95;9.45;;;-0.80;99.90;;;;;;502938;236;27482;-65
2024/01/17 06:37:28;;;;;;;12.80;8.88;;;-0.80;99.90;;;;;;503030;236;27479;-65
2024/01/17 06:39:29;;;;;;;11.80;8.35;;;-0.80;99.90;;;;;;503017;236;27874;-65
2024/01/17 06:41:30;;;;;;;14.10;9.07;;;-0.80;99.90;;;;;;502983;236;28080;-65
2024/01/17 06:43:31;;;;;;;14.50;7.62;;;-0.80;99.90;;;;;;502977;236;27473;-65
2024/01/17 06:45:33;;;;;;;14.23;8.50;;;-0.80;99.90;;;;;;502996;236;27442;-66
2024/01/17 06:47:34;;;;;;;11.20;8.48;;;-0.80;99.90;;;;;;503009;236;27579;-65
2024/01/17 06:49:35;;;;;;;11.07;7.22;;;-0.80;99.90;;;;;;503017;236;27458;-65
2024/01/17 06:51:38;;;;;;;15.85;8.45;;;-0.80;99.90;;;;;;502991;236;28115;-65
2024/01/17 06:53:38;;;;;;;11.35;7.45;;;-0.80;99.90;;;;;;502971;236;27861;-65
2024/01/17 06:55:39;;;;;;;11.80;7.45;;;-0.90;99.90;;;;;;502989;236;27548;-65
2024/01/17 06:57:40;;;;;;;10.60;7.45;;;-0.80;99.90;;;;;;503014;236;27479;-66
2024/01/17 06:59:42;;;;;;;11.95;7.40;;;-0.80;99.90;;;;;;503051;236;27438;-65
2024/01/17 07:01:43;;;;;;;10.07;6.80;;;-0.80;99.90;;;;;;503005;236;27485;-65
2024/01/17 07:03:44;;;;;;;11.02;7.60;;;-0.80;99.90;;;;;;503068;236;27522;-66
2024/01/17 07:05:45;;;;;;;11.68;8.25;;;-0.80;99.90;;;;;;502886;236;27439;-65
2024/01/17 07:07:47;;;;;;;10.48;7.07;;;-0.80;99.90;;;;;;503017;236;28051;-65
2024/01/17 07:09:48;;;;;;;16.15;10.30;;;-0.80;99.90;;;;;;503009;236;29850;-65
2024/01/17 07:11:49;;;;;;;13.30;9.15;;;-0.70;99.90;;;;;;503009;236;27540;-65
2024/01/17 07:13:50;;;;;;;25.33;14.63;;;-0.60;99.90;;;;;;503014;236;27505;-65
2024/01/17 07:15:52;;;;;;;14.40;9.50;;;-0.50;99.90;;;;;;502978;236;27466;-65
2024/01/17 07:17:53;;;;;;;18.45;11.60;;;-0.40;99.90;;;;;;502994;236;27575;-65
2024/01/17 07:19:54;;;;;;;16.40;10.82;;;-0.40;99.90;;;;;;503067;236;27524;-66
2024/01/17 07:21:56;;;;;;;16.83;11.40;;;-0.30;99.90;;;;;;503051;236;27899;-65
2024/01/17 07:23:57;;;;;;;20.33;12.00;;;-0.30;99.90;;;;;;503005;236;27975;-65
2024/01/17 07:25:58;;;;;;;14.32;9.63;;;-0.30;99.90;;;;;;502982;236;27482;-65
2024/01/17 07:27:59;;;;;;;18.42;10.07;;;-0.30;99.90;;;;;;503013;236;27466;-66
2024/01/17 07:30:00;;;;;;;18.40;9.75;;;-0.40;99.90;;;;;;503058;236;27602;-66
2024/01/17 07:32:02;;;;;;;11.48;8.85;;;-0.40;99.90;;;;;;502972;236;27448;-65
2024/01/17 07:34:03;;;;;;;9.75;7.20;;;-0.50;99.90;;;;;;502999;236;27479;-65
2024/01/17 07:36:04;;;;;;;13.90;8.25;;;-0.50;99.90;;;;;;502933;236;28682;-65
2024/01/17 07:38:05;;;;;;;12.73;8.30;;;-0.60;99.90;;;;;;503050;236;27963;-65
2024/01/17 07:40:09;;;;;;;10.40;7.20;;;-0.60;99.90;;;;;;503037;236;27486;-66
2024/01/17 07:42:08;;;;;;;11.00;7.20;;;-0.50;99.90;;;;;;502841;236;27552;-65
2024/01/17 07:44:09;;;;;;;10.10;7.75;;;-0.50;99.90;;;;;;502945;236;27483;-65
2024/01/17 07:46:12;;;;;;;11.15;7.75;;;-0.50;99.90;;;;;;502758;236;27533;-65
2024/01/17 07:48:12;;;;;;;12.95;8.02;;;-0.50;99.90;;;;;;502738;236;27462;-65
2024/01/17 07:50:13;;;;;;;11.85;7.80;;;-0.40;99.90;;;;;;502811;236;27579;-65
2024/01/17 07:52:14;;;;;;;10.68;7.68;;;-0.40;99.90;;;;;;502813;236;28693;-65
2024/01/17 07:54:16;;;;;;;13.15;8.00;;;-0.40;99.90;;;;;;503075;236;27988;-65
2024/01/17 07:56:17;;;;;;;14.63;8.43;;;-0.30;99.90;;;;;;502948;236;27509;-66
2024/01/17 07:58:18;;;;;;;12.75;8.10;;;-0.20;99.90;;;;;;503013;236;27486;-65
2024/01/17 08:00:19;;;;;;;15.82;10.00;;;-0.20;99.90;;;;;;503003;236;27473;-66
2024/01/17 08:02:20;;;;;;;12.30;8.43;;;-0.30;99.90;;;;;;503024;236;27576;-66
2024/01/17 08:04:22;;;;;;;14.10;9.00;;;-0.40;99.90;;;;;;502996;236;27467;-66
2024/01/17 08:06:23;;;;;;;16.65;10.85;;;-0.40;99.90;;;;;;503022;236;27937;-65
2024/01/17 08:08:24;;;;;;;19.87;11.45;;;-0.30;99.90;;;;;;502984;236;27917;-66
2024/01/17 08:10:26;;;;;;;23.20;11.50;;;-0.40;99.90;;;;;;502993;236;27557;-65
2024/01/17 08:12:27;;;;;;;22.92;11.20;;;-0.30;99.90;;;;;;503056;236;27470;-66
2024/01/17 08:14:28;;;;;;;23.73;11.95;;;-0.30;99.90;;;;;;502981;236;27468;-65
2024/01/17 08:16:30;;;;;;;19.58;10.88;;;-0.30;99.90;;;;;;503014;236;27881;-65
2024/01/17 08:18:31;;;;;;;25.85;12.77;;;-0.20;99.90;;;;;;502953;236;27557;-65
2024/01/17 08:20:32;;;;;;;27.52;12.93;;;-0.20;99.90;;;;;;503041;236;27898;-65
2024/01/17 08:22:33;;;;;;;27.87;12.95;;;-0.20;99.90;;;;;;503034;236;27513;-66
2024/01/17 08:24:34;;;;;;;26.85;12.50;;;-0.20;99.90;;;;;;502965;236;27451;-65
2024/01/17 08:26:36;;;;;;;23.38;12.73;;;-0.20;99.90;;;;;;502989;236;27500;-66
2024/01/17 08:28:37;;;;;;;20.90;11.98;;;-0.20;99.90;;;;;;503048;236;27502;-66
2024/01/17 08:30:38;;;;;;;19.90;12.20;;;-0.20;99.90;;;;;;503024;236;27597;-66
2024/01/17 08:32:39;;;;;;;23.45;11.98;;;-0.10;99.90;;;;;;503018;236;27931;-65
2024/01/17 08:34:41;;;;;;;20.75;11.12;;;-0.10;99.90;;;;;;502939;236;27973;-65
2024/01/17 08:36:42;;;;;;;19.60;11.10;;;0.00;99.90;;;;;;502883;236;27482;-66
2024/01/17 08:38:43;;;;;;;25.70;13.10;;;0.00;99.90;;;;;;503049;236;27485;-66
2024/01/17 08:40:44;;;;;;;22.08;11.27;;;0.10;99.90;;;;;;503013;236;27445;-66
2024/01/17 08:42:46;;;;;;;26.80;12.37;;;0.20;99.90;;;;;;502999;236;27479;-66
2024/01/17 08:44:47;;;;;;;20.95;10.95;;;0.30;99.90;;;;;;502943;236;27445;-65
2024/01/17 08:46:48;;;;;;;18.17;10.90;;;0.40;99.90;;;;;;503037;236;27955;-65
2024/01/17 08:48:49;;;;;;;19.95;11.35;;;0.40;99.90;;;;;;503011;236;27995;-66
2024/01/17 08:50:51;;;;;;;18.25;10.15;;;0.40;99.90;;;;;;503023;236;27441;-66
2024/01/17 08:52:52;;;;;;;17.08;10.32;;;0.40;99.90;;;;;;502995;236;27589;-66
2024/01/17 08:54:54;;;;;;;15.35;10.00;;;0.50;99.90;;;;;;502999;236;27493;-65
2024/01/17 08:56:54;;;;;;;18.17;9.85;;;0.60;99.90;;;;;;503013;236;27553;-66
2024/01/17 08:58:56;;;;;;;16.37;10.23;;;0.60;99.90;;;;;;503027;236;27508;-65
2024/01/17 09:00:57;;;;;;;13.80;8.75;;;0.70;99.90;;;;;;502978;236;27446;-66
2024/01/17 09:02:58;;;;;;;11.45;8.57;;;0.70;99.90;;;;;;502978;236;27958;-66
2024/01/17 09:05:00;;;;;;;12.45;8.15;;;0.80;99.90;;;;;;502993;236;27978;-66
2024/01/17 09:07:01;;;;;;;11.30;7.05;;;0.90;99.90;;;;;;503015;236;27892;-65
2024/01/17 09:09:03;;;;;;;13.80;6.95;;;1.00;99.90;;;;;;503005;236;27475;-66
2024/01/17 09:11:05;;;;;;;9.10;6.62;;;1.10;99.90;;;;;;502985;236;27458;-65
2024/01/17 09:13:04;;;;;;;10.50;8.00;;;1.20;99.90;;;;;;502938;236;27549;-65
2024/01/17 09:15:06;;;;;;;12.90;8.60;;;1.30;99.90;;;;;;503020;236;27477;-66
2024/01/17 09:17:07;;;;;;;32.63;21.35;;;1.50;99.90;;;;;;503044;236;27548;-66
2024/01/17 09:19:08;;;;;;;24.65;16.42;;;1.60;99.90;;;;;;503029;236;27512;-65
2024/01/17 09:21:10;;;;;;;19.65;13.18;;;1.60;99.90;;;;;;503011;236;27865;-65
2024/01/17 09:23:11;;;;;;;17.95;11.57;;;1.60;99.90;;;;;;503053;236;27901;-66
2024/01/17 09:25:12;;;;;;;14.23;9.40;;;1.70;99.90;;;;;;503015;236;27964;-66
2024/01/17 09:27:13;;;;;;;13.10;9.68;;;1.70;99.90;;;;;;503016;236;27458;-65
2024/01/17 09:29:15;;;;;;;11.75;9.02;;;1.80;99.90;;;;;;502980;236;27571;-65
2024/01/17 09:31:16;;;;;;;11.70;8.95;;;1.70;99.90;;;;;;503050;236;27584;-67
2024/01/17 09:33:18;;;;;;;11.90;7.80;;;1.80;99.90;;;;;;502999;236;27563;-65
2024/01/17 09:35:19;;;;;;;13.93;8.07;;;1.70;99.90;;;;;;502955;236;27514;-66
2024/01/17 09:37:20;;;;;;;12.30;8.32;;;1.60;99.90;;;;;;503045;236;27973;-66
2024/01/17 09:39:22;;;;;;;14.07;8.60;;;1.60;99.90;;;;;;503022;236;29081;-65
2024/01/17 09:41:22;;;;;;;11.85;8.23;;;1.50;99.90;;;;;;503014;236;27481;-65
2024/01/17 09:43:24;;;;;;;11.57;8.10;;;1.50;99.90;;;;;;502981;236;27439;-65
2024/01/17 09:45:25;;;;;;;10.88;7.95;;;1.50;99.90;;;;;;503017;236;27454;-65
2024/01/17 09:47:26;;;;;;;11.90;8.27;;;1.60;99.90;;;;;;503036;236;27505;-66
2024/01/17 09:49:28;;;;;;;11.60;7.90;;;1.60;99.90;;;;;;502999;236;27485;-65
2024/01/17 09:51:30;;;;;;;10.48;6.95;;;1.70;99.90;;;;;;502980;236;27607;-66
2024/01/17 09:53:33;;;;;;;8.23;6.70;;;1.70;99.90;;;;;;502934;236;27830;-66
2024/01/17 09:55:36;;;;;;;9.40;6.43;;;1.80;99.90;;;;;;502981;236;29033;-66
2024/01/17 09:57:35;;;;;;;10.30;6.18;;;1.70;99.90;;;;;;502918;236;27980;-65
2024/01/17 09:59:37;;;;;;;8.55;6.80;;;1.80;99.90;;;;;;503020;236;27466;-65
2024/01/17 10:01:38;;;;;;;7.60;5.82;;;1.80;99.90;;;;;;502984;236;27567;-65
2024/01/17 10:03:39;;;;;;;11.75;7.20;;;1.80;99.90;;;;;;503033;236;27457;-65
2024/01/17 10:05:41;;;;;;;9.18;6.72;;;1.80;99.90;;;;;;502967;236;27501;-66
2024/01/17 10:07:42;;;;;;;10.73;7.10;;;1.80;99.90;;;;;;502981;236;27482;-65
2024/01/17 10:09:43;;;;;;;8.30;6.45;;;1.70;99.90;;;;;;503002;236;27490;-66
2024/01/17 10:11:44;;;;;;;9.35;6.93;;;1.80;99.90;;;;;;502863;236;27900;-66
2024/01/17 10:13:46;;;;;;;8.93;5.68;;;1.90;99.90;;;;;;502898;236;27538;-66
2024/01/17 10:15:47;;;;;;;7.45;5.78;;;1.90;99.90;;;;;;502989;236;27540;-65
2024/01/17 10:17:48;;;;;;;6.00;5.10;;;1.90;99.90;;;;;;503001;236;28050;-65
2024/01/17 10:19:49;;;;;;;7.07;5.60;;;2.00;99.90;;;;;;502926;236;27936;-65
2024/01/17 10:21:51;;;;;;;6.70;4.90;;;2.00;99.90;;;;;;502982;236;27961;-66
2024/01/17 10:23:52;;;;;;;9.10;6.30;;;2.10;99.90;;;;;;503021;236;27901;-65
2024/01/17 10:25:53;;;;;;;7.80;5.37;;;2.00;99.90;;;;;;502937;236;27471;-65
2024/01/17 10:27:54;;;;;;;11.10;5.40;;;2.00;99.90;;;;;;503002;236;27446;-65